TimeEDT,TemperatureF,Dew PointF,Humidity,Sea Level PressureIn,VisibilityMPH,Wind Direction,Wind SpeedMPH,Gust SpeedMPH,PrecipitationIn,Events,Conditions,WindDirDegrees,DateUTC
12:56 AM,60.1,37.9,44,29.85,10.0,SSE,6.9,-,N/A,,Overcast,150,2012-10-18 04:56:00
1:56 AM,57.0,37.0,47,29.85,10.0,SSE,4.6,-,N/A,,Partly Cloudy,160,2012-10-18 05:56:00
2:56 AM,54.0,37.9,55,29.85,10.0,Calm,Calm,-,N/A,,Clear,0,2012-10-18 06:56:00
3:56 AM,55.9,39.0,53,29.84,10.0,SSE,5.8,-,N/A,,Clear,160,2012-10-18 07:56:00
4:56 AM,54.0,39.9,59,29.84,10.0,SE,4.6,-,N/A,,Clear,140,2012-10-18 08:56:00
5:56 AM,48.2,41.0,76,29.84,10.0,East,4.6,-,N/A,,Clear,90,2012-10-18 09:56:00
6:56 AM,52.0,42.1,69,29.86,10.0,SE,3.5,-,N/A,,Clear,130,2012-10-18 10:56:00
7:56 AM,46.0,41.0,83,29.86,10.0,East,4.6,-,N/A,,Clear,80,2012-10-18 11:56:00
8:56 AM,57.9,45.0,62,29.86,10.0,SSE,8.1,17.3,N/A,,Clear,150,2012-10-18 12:56:00
9:56 AM,62.6,46.4,55,29.86,10.0,SSE,10.4,20.7,N/A,,Clear,160,2012-10-18 13:56:00
10:56 AM,64.9,46.0,50,29.85,10.0,South,15.0,24.2,N/A,,Clear,170,2012-10-18 14:56:00
11:56 AM,66.2,44.6,46,29.84,10.0,South,10.4,28.8,N/A,,Clear,170,2012-10-18 15:56:00
12:56 PM,68.0,45.0,43,29.82,10.0,SSE,18.4,26.5,N/A,,Clear,150,2012-10-18 16:56:00
1:32 PM,69.8,46.4,43,29.80,1.5,SSE,13.8,21.9,N/A,,Haze,150,2012-10-18 17:32:00
1:47 PM,69.8,44.6,40,29.80,10.0,SSE,15.0,25.3,N/A,,Clear,150,2012-10-18 17:47:00
1:56 PM,69.1,44.1,40,29.79,10.0,SSE,16.1,25.3,N/A,,Clear,160,2012-10-18 17:56:00
2:56 PM,69.1,43.0,39,29.79,10.0,South,9.2,24.2,N/A,,Clear,180,2012-10-18 18:56:00
3:56 PM,68.0,44.1,42,29.79,10.0,SSE,15.0,26.5,N/A,,Clear,150,2012-10-18 19:56:00
4:56 PM,66.0,44.1,45,29.81,10.0,SSE,12.7,19.6,N/A,,Clear,160,2012-10-18 20:56:00
5:56 PM,64.0,43.0,46,29.82,10.0,SSE,8.1,-,N/A,,Clear,160,2012-10-18 21:56:00
6:56 PM,63.0,44.1,50,29.82,10.0,SE,8.1,16.1,N/A,,Clear,140,2012-10-18 22:56:00
7:56 PM,64.0,43.0,46,29.82,10.0,SSE,10.4,24.2,N/A,,Clear,160,2012-10-18 23:56:00
8:56 PM,64.0,44.1,48,29.82,10.0,South,13.8,29.9,N/A,,Clear,170,2012-10-19 00:56:00
9:56 PM,63.0,44.1,50,29.84,10.0,SSE,9.2,18.4,N/A,,Partly Cloudy,160,2012-10-19 01:56:00
10:56 PM,62.1,45.0,53,29.83,10.0,SSE,8.1,18.4,N/A,,Mostly Cloudy,160,2012-10-19 02:56:00
11:56 PM,61.0,46.0,58,29.83,10.0,SSE,8.1,16.1,N/A,,Clear,160,2012-10-19 03:56:00